NO-0051 weather

Kristiansand Heliport, Hospital
Kristiansand, Vest-Agder, Norway

Public forecast

Using degrees Celsius for public forecast. Weather courtesy of forecast.io.

METAR (pilot weather report)

Closest report is Kristiansand Airport, 4.1 nm (7.5 km) NE. Retrieved 2019/05/19 14:20 UTC (0 seconds ago):

ENCN 191420Z 10011KT 9999 FEW025 18/12 Q1012

TAF (pilot weather forecast)

Forecast is more than 12 hours old.

Closest forecast is Kristiansand Airport, 4.1 nm (7.5 km) NE. Retrieved 2016/05/06 12:39 UTC (3 years ago):

TAF TAF ENCN 061100Z 0612/0712 14008KT 9999 FEW040